createdAt,value
2018-05-29T00:07:09.037Z,51.90
2018-05-29T00:09:41.544Z,59.23
2018-05-29T00:12:13.691Z,61.13
2018-05-29T00:14:43.014Z,62.90
2018-05-29T00:17:14.454Z,60.83
2018-05-29T00:19:47.518Z,58.77
2018-05-29T00:22:17.613Z,58.57
2018-05-29T00:25:03.656Z,58.90
2018-05-29T00:27:33.904Z,56.00
2018-05-29T00:30:03.332Z,58.43
2018-05-29T00:33:21.334Z,55.87
2018-05-29T00:35:51.564Z,54.10
2018-05-29T00:38:24.021Z,59.17
2018-05-29T00:41:44.045Z,59.70
2018-05-29T00:46:48.046Z,53.03
2018-05-29T00:49:20.333Z,56.27
2018-05-29T00:52:04.897Z,59.13
2018-05-29T00:54:35.303Z,54.40
2018-05-29T00:57:05.797Z,53.93
2018-05-29T00:59:48.908Z,53.80
2018-05-29T01:02:22.234Z,51.30
2018-05-29T01:04:51.797Z,50.17
2018-05-29T01:07:27.056Z,37.70
2018-05-29T01:09:59.031Z,32.83
2018-05-29T01:12:29.344Z,30.43
2018-05-29T01:15:01.768Z,25.90
2018-05-29T01:18:00.640Z,22.47
2018-05-29T01:20:34.344Z,19.87
2018-05-29T01:23:20.646Z,14.87
2018-05-29T01:29:06.212Z,9.47
2018-05-29T01:31:36.233Z,11.53
2018-05-29T01:34:07.351Z,9.80
2018-05-29T01:36:42.163Z,15.23
2018-05-29T01:39:11.935Z,8.63
2018-05-29T01:41:50.004Z,11.30
2018-05-29T01:44:24.623Z,11.97
2018-05-29T01:56:02.087Z,23.03
2018-05-29T01:58:33.458Z,24.23
2018-05-29T02:03:46.774Z,26.83
2018-05-29T02:06:16.772Z,29.70
2018-05-29T02:11:22.559Z,30.87
2018-05-29T02:13:51.707Z,29.93
2018-05-29T02:16:22.138Z,34.00
2018-05-29T02:18:52.169Z,35.07
2018-05-29T02:24:09.227Z,34.00
2018-05-29T02:26:38.610Z,32.40
2018-05-29T02:29:07.808Z,36.40
2018-05-29T02:31:36.944Z,31.87
2018-05-29T02:34:10.829Z,36.10
2018-05-29T02:36:46.377Z,36.20
2018-05-29T02:39:19.184Z,37.07
2018-05-29T02:41:50.004Z,38.97
2018-05-29T02:44:19.227Z,39.50
2018-05-29T02:46:50.899Z,41.00
2018-05-29T02:49:21.441Z,41.97
2018-05-29T02:51:51.084Z,40.17
2018-05-29T02:54:20.173Z,43.90
2018-05-29T02:56:50.163Z,44.73
2018-05-29T02:59:20.249Z,47.53
2018-05-29T03:01:50.187Z,50.97
2018-05-29T03:04:19.370Z,47.80
2018-05-29T03:06:48.444Z,53.07
2018-05-29T03:09:19.178Z,49.50
2018-05-29T03:11:48.648Z,52.57
2018-05-29T03:14:18.132Z,51.63
2018-05-29T03:16:50.716Z,56.60
2018-05-29T03:22:06.768Z,45.30
2018-05-29T03:24:38.021Z,51.37
2018-05-29T03:27:50.520Z,52.20
2018-05-29T03:30:20.122Z,51.10
2018-05-29T03:32:50.265Z,50.63
2018-05-29T03:35:21.734Z,49.23
2018-05-29T03:37:52.543Z,47.37
2018-05-29T03:40:21.688Z,49.30
2018-05-29T03:42:50.944Z,47.40
2018-05-29T03:45:20.059Z,46.00
2018-05-29T03:47:50.039Z,43.20
2018-05-29T03:50:21.435Z,42.10
2018-05-29T03:52:55.500Z,46.13
2018-05-29T03:55:25.343Z,42.40
2018-05-29T03:57:54.600Z,34.07
2018-05-29T04:00:30.011Z,25.23
2018-05-29T04:03:03.215Z,25.60
2018-05-29T04:05:32.280Z,26.60
2018-05-29T04:08:06.932Z,25.43
2018-05-29T04:10:36.259Z,23.70
2018-05-29T04:13:06.121Z,26.97
2018-05-29T04:15:35.292Z,29.10
2018-05-29T04:18:05.897Z,26.20
2018-05-29T04:20:50.949Z,20.93
2018-05-29T04:23:48.684Z,22.10
2018-05-29T04:26:17.913Z,18.10
2018-05-29T04:28:49.007Z,19.57
2018-05-29T04:31:22.838Z,23.27
2018-05-29T04:33:53.061Z,18.83
2018-05-29T04:36:26.829Z,18.53
2018-05-29T04:39:00.559Z,18.40
2018-05-29T04:41:31.484Z,17.97
2018-05-29T04:44:00.685Z,17.07
2018-05-29T04:46:30.920Z,17.77
2018-05-29T04:49:01.648Z,15.27
2018-05-29T04:51:38.875Z,16.37
2018-05-29T04:54:09.670Z,15.53
2018-05-29T04:59:24.257Z,18.03
2018-05-29T05:02:05.832Z,17.40
2018-05-29T05:04:35.230Z,13.23
2018-05-29T05:07:04.292Z,10.77
2018-05-29T05:09:34.960Z,12.67
2018-05-29T05:12:04.138Z,9.70
2018-05-29T05:14:39.711Z,11.27
2018-05-29T05:17:12.784Z,9.60
2018-05-29T05:19:43.735Z,9.70
2018-05-29T05:22:13.062Z,13.13
2018-05-29T05:24:52.736Z,9.77
2018-05-29T05:27:21.953Z,8.43
2018-05-29T05:29:51.038Z,11.40
2018-05-29T05:32:20.512Z,9.87
2018-05-29T05:34:54.421Z,10.23
2018-05-29T05:37:27.872Z,16.33
2018-05-29T05:40:05.311Z,11.17
2018-05-29T05:42:44.307Z,13.03
2018-05-29T05:45:15.437Z,10.03
2018-05-29T05:47:45.129Z,14.00
2018-05-29T05:50:18.095Z,10.00
2018-05-29T05:52:53.504Z,17.33
2018-05-29T05:55:26.474Z,16.13
2018-05-29T05:58:01.789Z,15.50
2018-05-29T06:00:31.631Z,17.93
2018-05-29T06:03:14.211Z,16.00
2018-05-29T06:05:52.616Z,16.40
2018-05-29T06:08:22.009Z,14.93
2018-05-29T06:10:51.271Z,14.67
2018-05-29T06:13:20.410Z,16.87
2018-05-29T06:15:51.876Z,18.67
2018-05-29T06:18:22.177Z,21.40
2018-05-29T06:20:51.289Z,19.67
2018-05-29T06:23:20.511Z,22.00
2018-05-29T06:25:50.815Z,20.77
2018-05-29T06:28:20.348Z,21.97
2018-05-29T06:30:53.852Z,17.33
2018-05-29T06:33:23.799Z,20.47
2018-05-29T06:35:52.986Z,20.03
2018-05-29T06:38:22.219Z,28.23
2018-05-29T06:40:51.289Z,22.63
2018-05-29T06:43:20.511Z,20.43
2018-05-29T06:45:51.104Z,27.10
2018-05-29T06:48:28.203Z,33.03
2018-05-29T06:50:58.357Z,32.80
2018-05-29T06:53:28.887Z,29.07
2018-05-29T06:55:59.451Z,40.43
2018-05-29T06:58:28.612Z,30.43
2018-05-29T07:00:58.785Z,29.33
2018-05-29T07:03:27.876Z,25.13
2018-05-29T07:05:57.097Z,25.93
2018-05-29T07:08:26.603Z,27.03
2018-05-29T07:10:55.800Z,24.57
2018-05-29T07:13:26.571Z,25.17
2018-05-29T07:15:55.859Z,28.80
2018-05-29T07:18:25.101Z,29.47
2018-05-29T07:20:54.300Z,28.03
2018-05-29T07:23:23.382Z,24.47
2018-05-29T07:25:53.838Z,25.40
2018-05-29T07:28:23.150Z,27.03
2018-05-29T07:30:52.375Z,22.83
2018-05-29T07:33:21.819Z,25.93
2018-05-29T07:35:52.366Z,23.23
2018-05-29T07:38:21.691Z,27.47
2018-05-29T07:40:51.714Z,29.43
2018-05-29T07:43:25.547Z,28.33
2018-05-29T07:48:57.353Z,23.30
2018-05-29T07:51:26.553Z,27.53
2018-05-29T07:53:57.909Z,23.37
2018-05-29T07:56:27.893Z,27.23
2018-05-29T07:59:07.538Z,22.60
2018-05-29T08:01:36.783Z,27.57
2018-05-29T08:04:05.891Z,25.53
2018-05-29T08:06:34.938Z,25.10
2018-05-29T08:09:05.102Z,24.67
2018-05-29T08:11:34.352Z,26.57
2018-05-29T08:14:04.474Z,24.37
2018-05-29T08:16:33.636Z,28.43
2018-05-29T08:19:02.796Z,23.50
2018-05-29T08:21:32.089Z,25.73
2018-05-29T08:24:11.400Z,27.20
2018-05-29T08:26:41.602Z,29.37
2018-05-29T08:29:12.561Z,25.10
2018-05-29T08:31:42.410Z,26.90
2018-05-29T08:34:12.608Z,27.43
2018-05-29T08:36:41.997Z,30.17
2018-05-29T08:39:11.307Z,24.77
2018-05-29T08:41:48.681Z,26.73
2018-05-29T08:44:17.842Z,26.20
2018-05-29T08:46:47.428Z,25.73
2018-05-29T08:49:17.290Z,31.20
2018-05-29T08:51:53.796Z,25.63
2018-05-29T08:54:22.916Z,24.93
2018-05-29T08:56:52.623Z,25.40
2018-05-29T08:59:22.067Z,25.17
2018-05-29T09:01:52.287Z,23.97
2018-05-29T09:04:21.648Z,28.70
2018-05-29T09:06:56.182Z,25.80
2018-05-29T09:09:27.965Z,29.30
2018-05-29T09:11:57.186Z,26.87
2018-05-29T09:14:27.523Z,29.03
2018-05-29T09:17:12.159Z,29.77
2018-05-29T09:19:43.219Z,28.93
2018-05-29T09:22:17.612Z,29.90
2018-05-29T09:24:49.647Z,28.60
2018-05-29T09:27:18.889Z,27.57
2018-05-29T09:29:48.104Z,31.03
2018-05-29T09:32:18.110Z,30.60
2018-05-29T09:34:47.201Z,31.90
2018-05-29T09:37:16.313Z,30.57
2018-05-29T09:39:45.406Z,29.30
2018-05-29T09:42:14.814Z,37.67
2018-05-29T09:44:44.111Z,34.27
2018-05-29T09:47:13.485Z,31.07
2018-05-29T09:49:42.635Z,31.03
2018-05-29T09:52:11.790Z,30.80
2018-05-29T09:54:40.987Z,32.60
2018-05-29T09:57:11.628Z,29.83
2018-05-29T09:59:41.580Z,30.73
2018-05-29T10:02:10.952Z,29.20
2018-05-29T10:04:40.127Z,28.47
2018-05-29T10:07:09.538Z,33.37
2018-05-29T10:09:39.569Z,33.37
2018-05-29T10:12:09.665Z,36.87
2018-05-29T10:14:38.825Z,30.43
2018-05-29T10:17:08.765Z,35.20
2018-05-29T10:19:37.941Z,33.23
2018-05-29T10:22:07.122Z,33.70
2018-05-29T10:24:38.728Z,28.47
2018-05-29T10:27:08.640Z,30.23
2018-05-29T10:29:37.843Z,26.63
2018-05-29T10:32:07.037Z,28.10
2018-05-29T10:34:36.176Z,32.33
2018-05-29T10:37:06.122Z,30.13
2018-05-29T10:39:37.344Z,28.40
2018-05-29T10:42:06.570Z,26.47
2018-05-29T10:44:39.620Z,35.77
2018-05-29T10:47:11.413Z,36.43
2018-05-29T10:49:45.031Z,29.23
2018-05-29T10:52:14.453Z,28.37
2018-05-29T10:54:43.751Z,27.33
2018-05-29T10:57:33.890Z,31.33
2018-05-29T11:00:10.012Z,29.23
2018-05-29T11:02:39.185Z,31.70
2018-05-29T11:05:39.465Z,31.80
2018-05-29T11:08:10.804Z,28.67
2018-05-29T11:10:41.423Z,30.20
2018-05-29T11:13:15.701Z,28.33
2018-05-29T11:15:45.010Z,27.53
2018-05-29T11:18:15.715Z,32.37
2018-05-29T11:20:45.518Z,30.50
2018-05-29T11:23:18.976Z,27.67
2018-05-29T11:26:16.128Z,27.70
2018-05-29T11:28:45.349Z,27.90
2018-05-29T11:31:16.287Z,27.00
2018-05-29T11:33:51.515Z,32.27
2018-05-29T11:36:20.802Z,35.67
2018-05-29T11:38:50.189Z,32.60
2018-05-29T11:41:19.498Z,36.10
2018-05-29T11:43:52.749Z,33.50
2018-05-29T11:46:26.651Z,40.30
2018-05-29T11:54:51.081Z,44.37
2018-05-29T11:57:23.108Z,41.90
2018-05-29T11:59:52.466Z,48.73
2018-05-29T12:02:21.856Z,48.23
2018-05-29T12:04:53.964Z,44.63
2018-05-29T12:07:26.169Z,45.60
2018-05-29T12:12:39.821Z,40.87
2018-05-29T12:24:33.636Z,44.47
2018-05-29T12:27:07.646Z,39.33
2018-05-29T12:29:39.598Z,171.97
2018-05-29T12:32:11.535Z,40.57
2018-05-29T12:37:27.700Z,33.00
2018-05-29T12:40:00.043Z,33.17
2018-05-29T12:42:32.522Z,35.67
2018-05-29T12:48:23.082Z,31.90
2018-05-29T12:53:56.935Z,39.17
2018-05-29T12:56:30.113Z,48.77
2018-05-29T12:59:02.318Z,41.00
2018-05-29T13:01:33.882Z,38.13
2018-05-29T13:10:35.191Z,45.10
2018-05-29T13:13:05.252Z,44.37
2018-05-29T13:50:11.841Z,44.23
2018-05-29T13:52:42.179Z,40.07
2018-05-29T13:55:24.024Z,38.70
2018-05-29T13:57:55.356Z,39.90
2018-05-29T14:00:24.852Z,40.17
2018-05-29T14:03:01.490Z,37.87
2018-05-29T14:05:31.146Z,35.73
2018-05-29T14:08:02.411Z,35.90
2018-05-29T14:13:50.457Z,30.13
2018-05-29T14:23:03.711Z,29.73
2018-05-29T14:28:16.657Z,39.00
2018-05-29T14:34:14.982Z,50.50
2018-05-29T14:36:45.386Z,43.30
2018-05-29T14:39:16.980Z,32.87
2018-05-29T14:41:46.474Z,28.80
2018-05-29T14:44:15.665Z,29.23
2018-05-29T14:46:45.032Z,36.57
2018-05-29T14:49:14.621Z,35.73
2018-05-29T14:51:48.695Z,34.00
2018-05-29T14:54:18.023Z,28.70
2018-05-29T14:56:50.079Z,33.37
2018-05-29T14:59:19.422Z,35.03
2018-05-29T15:01:48.638Z,32.27
2018-05-29T15:04:19.414Z,31.90
2018-05-29T15:06:48.735Z,34.77
2018-05-29T15:09:26.075Z,28.73
2018-05-29T15:11:55.309Z,32.50
2018-05-29T15:14:24.572Z,32.87
2018-05-29T15:16:54.988Z,29.57
2018-05-29T15:19:24.396Z,28.00
2018-05-29T15:21:53.593Z,29.57
2018-05-29T15:24:23.222Z,30.33
2018-05-29T15:26:53.205Z,29.73
2018-05-29T15:29:22.889Z,29.93
2018-05-29T15:31:52.357Z,31.83
2018-05-29T15:34:21.895Z,32.47
2018-05-29T15:36:51.043Z,29.73
2018-05-29T15:39:26.971Z,32.40
2018-05-29T15:41:59.524Z,33.67
2018-05-29T15:44:29.133Z,31.37
2018-05-29T15:46:58.512Z,33.20
2018-05-29T15:49:28.596Z,30.07
2018-05-29T15:52:02.477Z,32.17
2018-05-29T15:54:32.730Z,27.20
2018-05-29T15:57:02.071Z,28.13
2018-05-29T15:59:34.364Z,28.13
2018-05-29T16:02:07.052Z,29.03
2018-05-29T16:04:47.753Z,32.87
2018-05-29T16:07:17.082Z,32.33
2018-05-29T16:09:51.113Z,39.97
2018-05-29T16:12:21.797Z,37.17
2018-05-29T16:14:51.470Z,32.00
2018-05-29T16:17:23.994Z,32.17
2018-05-29T16:19:53.404Z,30.93
2018-05-29T16:22:25.185Z,34.17
2018-05-29T16:28:19.177Z,24.87
2018-05-29T16:30:48.454Z,28.43
2018-05-29T16:33:19.035Z,26.73
2018-05-29T16:35:49.357Z,32.83
2018-05-29T16:38:18.649Z,39.70
2018-05-29T16:40:48.998Z,31.33
2018-05-29T16:43:18.977Z,32.67
2018-05-29T16:45:48.757Z,35.77
2018-05-29T16:48:20.363Z,36.43
2018-05-29T16:50:50.327Z,30.20
2018-05-29T16:53:22.011Z,31.70
2018-05-29T16:55:51.295Z,26.97
2018-05-29T16:58:21.587Z,39.40
2018-05-29T17:00:50.832Z,37.37
2018-05-29T17:03:20.110Z,23.40
2018-05-29T17:05:50.327Z,27.37
2018-05-29T17:08:19.564Z,22.15
2018-05-29T17:10:50.229Z,26.15
2018-05-29T17:13:20.447Z,23.77
2018-05-29T17:15:51.393Z,27.27
2018-05-29T17:18:22.132Z,24.67
2018-05-29T17:20:52.282Z,25.88
2018-05-29T17:23:21.867Z,25.65
2018-05-29T17:25:51.769Z,22.98
2018-05-29T17:28:22.463Z,28.73
2018-05-29T17:30:51.571Z,24.58
2018-05-29T17:33:20.898Z,22.08
2018-05-29T17:35:49.963Z,30.27
2018-05-29T17:38:19.327Z,31.08
2018-05-29T17:40:48.674Z,28.65
2018-05-29T17:43:17.754Z,27.13
2018-05-29T17:45:47.706Z,22.23
2018-05-29T17:48:16.914Z,27.80
2018-05-29T17:50:47.194Z,22.35
2018-05-29T17:53:18.381Z,27.92
2018-05-29T17:55:47.860Z,24.05
2018-05-29T17:58:16.971Z,24.83
2018-05-29T18:00:46.383Z,26.30
2018-05-29T18:03:15.604Z,31.30
2018-05-29T18:05:44.872Z,27.20
2018-05-29T18:08:15.405Z,25.73
2018-05-29T18:10:44.788Z,29.30
2018-05-29T18:13:13.964Z,20.95
2018-05-29T18:15:43.815Z,27.05
2018-05-29T18:18:14.957Z,22.65
2018-05-29T18:20:44.743Z,23.92
2018-05-29T18:23:16.122Z,21.85
2018-05-29T18:25:46.405Z,25.33
2018-05-29T18:28:17.936Z,32.20
2018-05-29T18:30:47.144Z,20.90
2018-05-29T18:33:17.411Z,25.15
2018-05-29T18:35:47.771Z,24.35
2018-05-29T18:38:17.953Z,21.70
2018-05-29T18:40:47.075Z,25.85
2018-05-29T18:43:16.140Z,22.50
2018-05-29T18:45:46.247Z,20.45
2018-05-29T18:48:17.513Z,18.87
2018-05-29T18:50:48.679Z,21.27
2018-05-29T18:53:18.045Z,20.30
2018-05-29T18:55:47.461Z,18.30
2018-05-29T18:58:16.578Z,18.73
2018-05-29T19:00:48.184Z,19.37
2018-05-29T19:03:18.569Z,25.35
2018-05-29T19:05:47.899Z,20.80
2018-05-29T19:08:18.553Z,22.75
2018-05-29T19:10:48.054Z,23.20
2018-05-29T19:13:20.288Z,21.92
2018-05-29T19:15:49.928Z,23.02
2018-05-29T19:18:19.941Z,27.42
2018-05-29T19:20:50.097Z,22.85
2018-05-29T19:23:22.330Z,22.80
2018-05-29T19:25:53.507Z,22.02
2018-05-29T19:28:27.183Z,22.33
2018-05-29T19:33:32.782Z,23.80
2018-05-29T19:36:03.368Z,27.37
2018-05-29T19:38:36.413Z,26.30
2018-05-29T19:41:07.469Z,27.13
2018-05-29T19:43:36.872Z,23.52
2018-05-29T19:46:07.655Z,23.35
2018-05-29T19:48:39.150Z,24.65
2018-05-29T19:51:11.986Z,24.58
2018-05-29T19:53:41.903Z,27.25
2018-05-29T19:56:14.373Z,26.62
2018-05-29T19:58:43.576Z,26.08
2018-05-29T20:01:12.717Z,25.60
2018-05-29T20:03:42.193Z,26.85
2018-05-29T20:06:14.335Z,34.50
2018-05-29T20:08:45.646Z,26.37
2018-05-29T20:11:17.139Z,31.92
2018-05-29T20:13:46.365Z,27.70
2018-05-29T20:16:19.956Z,28.38
2018-05-29T20:18:49.563Z,31.37
2018-05-29T20:21:18.810Z,28.53
2018-05-29T20:23:48.449Z,31.12
2018-05-29T20:26:18.314Z,31.73
2018-05-29T20:28:48.283Z,36.23
2018-05-29T20:31:17.542Z,35.70
2018-05-29T20:33:47.436Z,31.27
2018-05-29T20:36:18.219Z,36.03
2018-05-29T20:38:50.895Z,35.00
2018-05-29T20:41:21.047Z,38.03
2018-05-29T20:43:51.961Z,48.67
2018-05-29T20:46:21.460Z,44.17
2018-05-29T20:48:50.849Z,43.77
2018-05-29T20:51:20.453Z,43.87
2018-05-29T20:53:52.088Z,44.40
2018-05-29T20:56:22.755Z,43.27
2018-05-29T20:58:56.406Z,47.93
2018-05-29T21:01:29.157Z,54.20
2018-05-29T21:04:14.632Z,45.43
2018-05-29T21:12:21.415Z,52.13
2018-05-29T21:14:54.456Z,53.80
2018-05-29T21:17:24.192Z,45.80
2018-05-29T21:19:53.604Z,50.90
2018-05-29T21:22:23.410Z,47.07
2018-05-29T21:24:53.750Z,55.23
2018-05-29T21:27:22.881Z,61.47
2018-05-29T21:29:52.411Z,42.40
2018-05-29T21:32:21.751Z,49.30
2018-05-29T21:34:51.175Z,46.23
2018-05-29T21:37:21.034Z,43.03
2018-05-29T21:39:53.220Z,44.23
2018-05-29T21:42:23.111Z,42.50
2018-05-29T21:44:54.136Z,43.20
2018-05-29T21:47:26.584Z,48.93
2018-05-29T21:52:45.439Z,51.53
2018-05-29T21:55:15.156Z,45.97
2018-05-29T21:57:50.332Z,38.13
2018-05-29T22:00:23.647Z,41.13
2018-05-29T22:02:54.340Z,41.57
2018-05-29T22:05:25.282Z,41.70
2018-05-29T22:07:55.362Z,40.90
2018-05-29T22:10:32.335Z,44.30
2018-05-29T22:13:02.274Z,44.50
2018-05-29T22:15:39.617Z,41.23
2018-05-29T22:18:14.814Z,42.97
2018-05-29T22:21:00.789Z,42.07
2018-05-29T22:23:30.652Z,31.10
2018-05-29T22:26:02.418Z,36.27
2018-05-29T22:28:32.769Z,35.10
2018-05-29T22:31:06.034Z,38.60
2018-05-29T22:33:37.156Z,34.13
2018-05-29T22:38:41.856Z,45.33
2018-05-29T22:41:11.409Z,29.50
2018-05-29T22:46:19.560Z,26.53
2018-05-29T22:48:49.704Z,29.40
2018-05-29T22:51:23.312Z,22.07
2018-05-29T22:53:52.371Z,23.63
2018-05-29T22:56:22.697Z,18.40
2018-05-29T22:58:52.332Z,16.27
2018-05-29T23:01:25.459Z,19.57
2018-05-29T23:03:58.409Z,20.47
2018-05-29T23:06:27.950Z,17.90
2018-05-29T23:08:57.093Z,20.87
2018-05-29T23:11:29.170Z,18.87
2018-05-29T23:13:58.274Z,17.93
2018-05-29T23:16:28.331Z,22.13
2018-05-29T23:18:57.454Z,28.13
2018-05-29T23:21:31.832Z,20.87
2018-05-29T23:24:01.109Z,23.30
2018-05-29T23:26:32.740Z,32.57
2018-05-29T23:29:01.896Z,23.83
2018-05-29T23:31:31.202Z,25.77
2018-05-29T23:34:13.161Z,28.47
2018-05-29T23:36:42.455Z,24.63
2018-05-29T23:39:13.965Z,24.77
2018-05-29T23:41:44.287Z,20.13
2018-05-29T23:44:20.608Z,25.47
2018-05-29T23:46:50.768Z,26.83
2018-05-29T23:49:22.106Z,28.73
2018-05-29T23:51:52.703Z,27.73
2018-05-29T23:54:24.345Z,30.50
2018-05-29T23:56:58.841Z,24.13
